createdAt,value
2022-11-03T00:03:37.702Z,73.40
2022-11-03T00:08:42.872Z,73.65
2022-11-03T00:13:46.186Z,73.56
2022-11-03T00:18:49.473Z,73.65
2022-11-03T00:23:55.593Z,73.85
2022-11-03T00:29:01.752Z,74.24
2022-11-03T00:34:06.381Z,74.43
2022-11-03T00:39:10.745Z,74.48
2022-11-03T00:44:14.845Z,74.65
2022-11-03T00:49:18.469Z,74.77
2022-11-03T00:54:21.912Z,75.01
2022-11-03T00:59:27.459Z,75.17
2022-11-03T01:04:30.857Z,75.21
2022-11-03T01:09:37.419Z,75.36
2022-11-03T01:14:44.974Z,75.31
2022-11-03T01:19:48.879Z,75.50
2022-11-03T01:24:53.948Z,75.43
2022-11-03T01:29:57.851Z,75.45
2022-11-03T01:35:01.398Z,75.40
2022-11-03T01:40:07.712Z,75.46
2022-11-03T01:45:11.129Z,75.44
2022-11-03T01:50:16.750Z,74.99
2022-11-03T01:55:27.498Z,75.24
2022-11-03T02:00:30.856Z,75.05
2022-11-03T02:05:34.452Z,75.38
2022-11-03T02:10:39.523Z,75.03
2022-11-03T02:15:45.555Z,74.92
2022-11-03T02:20:58.007Z,75.04
2022-11-03T02:26:02.012Z,74.84
2022-11-03T02:31:16.235Z,74.52
2022-11-03T02:36:31.089Z,74.59
2022-11-03T02:41:37.783Z,74.55
2022-11-03T02:46:47.158Z,74.41
2022-11-03T02:52:03.340Z,74.45
2022-11-03T02:57:14.433Z,74.52
2022-11-03T03:02:24.541Z,74.47
2022-11-03T03:07:33.616Z,74.20
2022-11-03T03:12:41.065Z,74.26
2022-11-03T03:17:52.674Z,74.08
2022-11-03T03:23:18.345Z,74.08
2022-11-03T03:28:35.132Z,74.09
2022-11-03T03:33:43.557Z,73.92
2022-11-03T03:38:59.041Z,73.72
2022-11-03T03:44:06.497Z,73.73
2022-11-03T03:49:09.974Z,73.50
2022-11-03T03:54:13.297Z,73.66
2022-11-03T03:59:17.089Z,73.42
2022-11-03T04:04:20.434Z,73.54
2022-11-03T04:09:23.837Z,73.26
2022-11-03T04:14:27.157Z,73.53
2022-11-03T04:19:30.474Z,73.34
2022-11-03T04:24:34.095Z,73.27
2022-11-03T04:29:37.632Z,73.41
2022-11-03T04:34:42.179Z,73.12
2022-11-03T04:39:45.987Z,72.93
2022-11-03T04:44:50.372Z,72.87
2022-11-03T04:49:55.957Z,72.62
2022-11-03T04:55:00.117Z,72.39
2022-11-03T05:00:04.291Z,72.43
2022-11-03T05:05:26.890Z,72.27
2022-11-03T05:10:30.020Z,71.89
2022-11-03T05:15:42.389Z,71.86
2022-11-03T05:20:55.655Z,71.71
2022-11-03T05:25:59.595Z,71.50
2022-11-03T05:31:15.373Z,71.42
2022-11-03T05:36:24.593Z,70.77
2022-11-03T05:41:30.595Z,69.48
2022-11-03T05:46:35.448Z,67.26
2022-11-03T05:51:41.430Z,65.44
2022-11-03T05:56:45.995Z,66.24
2022-11-03T06:01:49.930Z,66.85
2022-11-03T06:06:55.946Z,67.03
2022-11-03T06:12:02.697Z,66.75
2022-11-03T06:22:41.633Z,64.54
2022-11-03T06:27:47.595Z,65.20
2022-11-03T06:32:51.691Z,64.67
2022-11-03T06:37:57.784Z,60.30
2022-11-03T06:43:26.384Z,58.72
2022-11-03T06:48:33.692Z,59.00
2022-11-03T06:53:37.008Z,59.38
2022-11-03T06:58:41.311Z,60.68
2022-11-03T07:03:44.844Z,61.08
2022-11-03T07:08:51.889Z,61.81
2022-11-03T07:14:03.048Z,62.04
2022-11-03T07:19:23.884Z,62.36
2022-11-03T07:24:46.254Z,62.03
2022-11-03T07:29:51.310Z,61.90
2022-11-03T07:35:07.380Z,61.96
2022-11-03T07:40:18.450Z,62.02
2022-11-03T07:45:37.028Z,62.30
2022-11-03T07:50:40.591Z,62.59
2022-11-03T07:55:46.415Z,62.96
2022-11-03T08:00:50.787Z,62.88
2022-11-03T08:05:56.422Z,62.79
2022-11-03T08:10:59.744Z,63.18
2022-11-03T08:16:03.396Z,62.98
2022-11-03T08:21:06.798Z,62.66
2022-11-03T08:26:16.083Z,61.76
2022-11-03T08:31:22.927Z,61.12
2022-11-03T08:36:26.266Z,61.15
2022-11-03T08:41:30.381Z,60.43
2022-11-03T08:46:35.899Z,60.42
2022-11-03T08:51:44.091Z,60.60
2022-11-03T08:56:47.953Z,60.59
2022-11-03T09:01:51.502Z,60.82
2022-11-03T09:06:57.127Z,60.45
2022-11-03T09:12:00.898Z,60.42
2022-11-03T09:17:04.460Z,60.24
2022-11-03T09:22:07.686Z,60.51
2022-11-03T09:27:11.417Z,60.51
2022-11-03T09:32:17.646Z,60.34
2022-11-03T09:37:28.164Z,60.76
2022-11-03T09:42:32.971Z,60.95
2022-11-03T09:47:42.429Z,60.72
2022-11-03T09:52:51.300Z,61.27
2022-11-03T09:58:01.363Z,61.59
2022-11-03T10:03:05.313Z,61.11
2022-11-03T10:08:24.570Z,61.25
2022-11-03T10:13:36.781Z,60.62
2022-11-03T10:18:40.136Z,60.85
2022-11-03T10:23:44.064Z,60.98
2022-11-03T10:29:06.886Z,61.16
2022-11-03T10:34:36.237Z,61.53
2022-11-03T10:39:39.653Z,62.00
2022-11-03T10:44:42.929Z,62.37
2022-11-03T10:49:46.169Z,62.12
2022-11-03T10:54:53.189Z,61.90
2022-11-03T10:59:56.597Z,62.03
2022-11-03T11:05:02.373Z,62.25
2022-11-03T11:10:16.852Z,62.19
2022-11-03T11:15:43.200Z,62.64
2022-11-03T11:20:46.668Z,62.85
2022-11-03T11:26:13.786Z,62.43
2022-11-03T11:31:23.155Z,62.23
2022-11-03T11:36:26.822Z,62.20
2022-11-03T11:42:07.423Z,62.16
2022-11-03T11:47:26.340Z,61.94
2022-11-03T11:52:31.201Z,61.72
2022-11-03T11:57:35.663Z,61.86
2022-11-03T12:02:39.087Z,61.45
2022-11-03T12:07:42.667Z,61.20
2022-11-03T12:12:46.684Z,61.55
2022-11-03T12:17:50.157Z,61.34
2022-11-03T12:22:53.726Z,60.99
2022-11-03T12:27:57.655Z,61.68
2022-11-03T12:33:00.916Z,61.69
2022-11-03T12:38:04.418Z,61.88
2022-11-03T12:43:07.781Z,62.29
2022-11-03T12:48:11.337Z,62.12
2022-11-03T12:53:14.686Z,62.36
2022-11-03T12:58:17.794Z,62.64
2022-11-03T13:03:20.956Z,63.17
2022-11-03T13:08:24.568Z,63.19
2022-11-03T13:13:28.552Z,62.96
2022-11-03T13:18:32.373Z,62.98
2022-11-03T13:23:39.295Z,62.81
2022-11-03T13:28:42.765Z,62.84
2022-11-03T13:33:46.133Z,63.12
2022-11-03T13:38:49.252Z,62.82
2022-11-03T13:43:52.531Z,63.12
2022-11-03T13:59:42.725Z,63.09
2022-11-03T14:04:46.056Z,62.98
2022-11-03T14:09:49.320Z,62.76
2022-11-03T14:14:52.898Z,62.63
2022-11-03T14:20:02.541Z,63.06
2022-11-03T14:25:08.844Z,63.04
2022-11-03T14:30:12.946Z,63.09
2022-11-03T14:35:18.013Z,63.55
2022-11-03T14:40:21.451Z,63.63
2022-11-03T14:45:24.911Z,63.51
2022-11-03T14:50:28.470Z,63.63
2022-11-03T14:55:31.899Z,63.75
2022-11-03T15:00:40.386Z,64.01
2022-11-03T15:05:43.691Z,64.01
2022-11-03T15:10:47.269Z,63.81
2022-11-03T15:15:50.570Z,64.04
2022-11-03T15:20:55.981Z,64.37
2022-11-03T15:25:59.928Z,64.22
2022-11-03T15:31:03.623Z,64.07
2022-11-03T15:36:08.657Z,64.16
2022-11-03T15:41:15.172Z,64.18
2022-11-03T15:46:20.331Z,64.24
2022-11-03T15:51:24.517Z,63.87
2022-11-03T15:56:28.236Z,64.02
2022-11-03T16:01:32.201Z,63.84
2022-11-03T16:07:01.744Z,64.11
2022-11-03T16:11:59.105Z,64.33
2022-11-03T16:17:03.249Z,64.28
2022-11-03T16:22:06.808Z,64.55
2022-11-03T16:27:10.736Z,64.09
2022-11-03T16:32:17.167Z,64.20
2022-11-03T16:37:21.016Z,64.32
2022-11-03T16:42:24.649Z,64.32
2022-11-03T16:47:28.002Z,64.13
2022-11-03T16:52:31.466Z,64.42
2022-11-03T16:57:35.172Z,64.28
2022-11-03T17:02:39.016Z,64.62
2022-11-03T17:07:42.410Z,64.67
2022-11-03T17:12:45.787Z,64.45
2022-11-03T17:17:49.175Z,64.79
2022-11-03T17:22:52.640Z,64.49
2022-11-03T17:27:59.950Z,64.63
2022-11-03T17:33:08.109Z,64.91
2022-11-03T17:38:17.556Z,64.85
2022-11-03T17:43:25.969Z,64.96
2022-11-03T17:48:29.376Z,65.01
2022-11-03T17:53:34.142Z,65.13
2022-11-03T17:58:43.207Z,65.31
2022-11-03T18:03:49.748Z,65.43
2022-11-03T18:08:53.898Z,65.35
2022-11-03T18:13:57.398Z,65.65
2022-11-03T18:19:00.926Z,65.73
2022-11-03T18:24:11.621Z,65.73
2022-11-03T18:29:14.868Z,65.92
2022-11-03T18:34:26.300Z,65.89
2022-11-03T18:39:29.449Z,65.72
2022-11-03T18:44:32.531Z,65.98
2022-11-03T18:49:36.327Z,65.90
2022-11-03T18:54:44.513Z,65.86
2022-11-03T18:59:48.602Z,65.90
2022-11-03T19:04:52.382Z,66.21
2022-11-03T19:09:55.866Z,66.45
2022-11-03T19:15:05.392Z,66.48
2022-11-03T19:20:15.169Z,66.40
2022-11-03T19:25:18.345Z,66.47
2022-11-03T19:30:21.576Z,66.58
2022-11-03T19:35:35.314Z,66.42
2022-11-03T19:40:39.579Z,66.53
2022-11-03T19:45:43.062Z,66.66
2022-11-03T19:50:46.924Z,66.64
2022-11-03T19:55:50.327Z,66.42
2022-11-03T20:00:55.151Z,66.27
2022-11-03T20:06:00.224Z,66.33
2022-11-03T20:11:05.351Z,66.46
2022-11-03T20:16:16.551Z,66.38
2022-11-03T20:21:20.567Z,66.56
2022-11-03T20:26:25.841Z,66.56
2022-11-03T20:31:29.517Z,66.53
2022-11-03T20:36:33.499Z,66.67
2022-11-03T20:41:36.738Z,66.76
2022-11-03T20:46:40.663Z,66.87
2022-11-03T20:51:46.359Z,66.87
2022-11-03T20:56:49.548Z,66.54
2022-11-03T21:01:53.471Z,66.91
2022-11-03T21:06:57.807Z,66.85
2022-11-03T21:12:01.004Z,67.13
2022-11-03T21:17:04.104Z,67.24
2022-11-03T21:22:54.310Z,66.93
2022-11-03T21:27:58.353Z,67.15
2022-11-03T21:33:01.693Z,67.22
2022-11-03T21:38:05.672Z,67.49
2022-11-03T21:43:11.385Z,67.62
2022-11-03T21:48:15.145Z,67.51
2022-11-03T21:53:18.597Z,67.58
2022-11-03T21:58:21.944Z,67.75
2022-11-03T22:03:25.154Z,67.97
2022-11-03T22:08:28.527Z,67.98
2022-11-03T22:13:31.812Z,67.94
2022-11-03T22:18:35.159Z,68.17
2022-11-03T22:23:38.417Z,68.08
2022-11-03T22:28:41.817Z,68.27
2022-11-03T22:33:45.452Z,68.37
2022-11-03T22:38:49.099Z,68.19
2022-11-03T22:43:52.854Z,68.47
2022-11-03T22:48:56.399Z,68.49
2022-11-03T22:54:00.189Z,68.54
2022-11-03T22:59:04.404Z,68.59
2022-11-03T23:04:08.115Z,68.68
2022-11-03T23:09:11.850Z,68.72
2022-11-03T23:14:15.854Z,68.88
2022-11-03T23:19:19.087Z,69.18
2022-11-03T23:24:23.528Z,68.99
2022-11-03T23:29:28.560Z,69.02
2022-11-03T23:34:39.666Z,69.16
2022-11-03T23:39:43.091Z,69.26
2022-11-03T23:44:47.413Z,69.33
2022-11-03T23:49:51.314Z,69.20
2022-11-03T23:54:55.240Z,69.30
2022-11-03T23:59:58.784Z,69.35
